createdAt,value
2022-08-16T00:01:09.829Z,22.29
2022-08-16T00:06:15.478Z,22.21
2022-08-16T00:11:18.916Z,22.17
2022-08-16T00:17:01.261Z,22.15
2022-08-16T00:21:57.074Z,22.10
2022-08-16T00:27:05.508Z,22.02
2022-08-16T00:32:12.051Z,21.95
2022-08-16T00:37:25.089Z,21.90
2022-08-16T00:42:48.370Z,21.86
2022-08-16T00:47:57.726Z,21.78
2022-08-16T00:53:00.762Z,21.65
2022-08-16T00:58:04.692Z,21.55
2022-08-16T01:03:20.004Z,21.42
2022-08-16T01:08:36.969Z,21.34
2022-08-16T01:13:42.926Z,21.30
2022-08-16T01:19:15.406Z,21.26
2022-08-16T01:24:52.573Z,21.20
2022-08-16T01:30:20.047Z,21.10
2022-08-16T01:35:52.618Z,21.04
2022-08-16T01:41:03.318Z,21.02
2022-08-16T01:46:37.978Z,20.97
2022-08-16T01:51:46.967Z,20.92
2022-08-16T01:56:49.838Z,20.84
2022-08-16T02:01:59.515Z,20.79
2022-08-16T02:07:11.136Z,20.78
2022-08-16T02:12:49.590Z,20.74
2022-08-16T02:17:39.231Z,20.78
2022-08-16T02:22:43.296Z,20.76
2022-08-16T02:27:51.107Z,20.77
2022-08-16T02:32:55.240Z,20.77
2022-08-16T02:38:01.809Z,20.76
2022-08-16T02:43:11.845Z,20.68
2022-08-16T02:48:30.092Z,20.63
2022-08-16T02:53:35.993Z,20.56
2022-08-16T02:58:39.381Z,20.50
2022-08-16T03:04:39.926Z,20.44
2022-08-16T03:09:08.830Z,20.42
2022-08-16T03:14:21.138Z,20.38
2022-08-16T03:19:47.575Z,20.33
2022-08-16T03:24:54.068Z,20.27
2022-08-16T03:30:17.524Z,20.24
2022-08-16T03:35:33.371Z,20.19
2022-08-16T03:40:38.327Z,20.14
2022-08-16T03:45:41.721Z,20.12
2022-08-16T03:51:00.081Z,20.11
2022-08-16T03:56:04.507Z,20.13
2022-08-16T04:01:10.641Z,20.21
2022-08-16T04:06:16.275Z,20.31
2022-08-16T04:11:23.789Z,20.40
2022-08-16T04:16:28.326Z,20.49
2022-08-16T04:21:34.603Z,20.62
2022-08-16T04:26:37.655Z,20.76
2022-08-16T04:31:56.615Z,20.89
2022-08-16T04:37:02.096Z,21.01
2022-08-16T04:42:11.173Z,21.16
2022-08-16T04:47:23.878Z,21.29
2022-08-16T04:52:33.645Z,21.40
2022-08-16T04:57:39.374Z,21.46
2022-08-16T05:02:44.371Z,21.54
2022-08-16T05:07:59.579Z,21.63
2022-08-16T05:13:06.363Z,21.69
2022-08-16T05:18:16.173Z,21.77
2022-08-16T05:23:19.609Z,21.91
2022-08-16T05:28:37.437Z,22.05
2022-08-16T05:33:42.266Z,22.24
2022-08-16T05:38:46.465Z,22.38
2022-08-16T05:43:50.138Z,22.55
2022-08-16T05:48:54.855Z,22.71
2022-08-16T05:54:01.142Z,22.88
2022-08-16T05:59:06.636Z,23.07
2022-08-16T06:04:35.003Z,23.29
2022-08-16T06:09:44.471Z,23.52
2022-08-16T06:14:48.880Z,23.71
2022-08-16T06:19:55.963Z,23.91
2022-08-16T06:25:00.710Z,24.21
2022-08-16T06:30:05.428Z,24.48
2022-08-16T06:35:12.764Z,24.81
2022-08-16T06:40:16.941Z,25.07
2022-08-16T06:45:22.375Z,25.23
2022-08-16T06:50:29.519Z,25.27
2022-08-16T06:55:38.109Z,25.33
2022-08-16T07:00:43.253Z,25.38
2022-08-16T07:05:47.533Z,25.43
2022-08-16T07:10:53.001Z,25.52
2022-08-16T07:15:59.819Z,25.64
2022-08-16T07:21:04.066Z,25.89
2022-08-16T07:26:24.784Z,26.21
2022-08-16T07:31:37.442Z,26.39
2022-08-16T07:36:42.493Z,26.51
2022-08-16T07:41:48.647Z,26.64
2022-08-16T07:46:56.227Z,26.80
2022-08-16T07:51:59.349Z,27.08
2022-08-16T07:57:04.283Z,27.31
2022-08-16T08:02:11.894Z,27.65
2022-08-16T08:07:16.339Z,27.88
2022-08-16T08:12:32.267Z,28.06
2022-08-16T08:17:43.048Z,28.24
2022-08-16T08:22:49.381Z,28.45
2022-08-16T08:27:57.683Z,28.64
2022-08-16T08:33:01.422Z,28.91
2022-08-16T08:38:08.624Z,29.24
2022-08-16T08:43:18.325Z,29.52
2022-08-16T08:48:34.111Z,29.75
2022-08-16T08:53:39.790Z,30.06
2022-08-16T08:58:54.264Z,30.33
2022-08-16T09:04:03.596Z,30.55
2022-08-16T09:09:09.601Z,30.77
2022-08-16T09:14:24.319Z,31.03
2022-08-16T09:19:33.160Z,31.25
2022-08-16T09:24:51.366Z,31.34
2022-08-16T09:29:59.835Z,31.56
2022-08-16T09:35:05.470Z,31.73
2022-08-16T09:40:31.840Z,31.90
2022-08-16T09:45:39.029Z,32.15
2022-08-16T09:50:44.619Z,32.34
2022-08-16T09:55:56.765Z,32.54
2022-08-16T10:01:01.180Z,32.73
2022-08-16T10:06:04.157Z,33.00
2022-08-16T10:11:25.585Z,32.95
2022-08-16T10:16:29.382Z,32.93
2022-08-16T10:21:32.297Z,33.05
2022-08-16T10:27:20.419Z,32.92
2022-08-16T10:32:00.609Z,32.63
2022-08-16T10:37:06.606Z,32.33
2022-08-16T10:42:13.344Z,32.07
2022-08-16T10:47:16.518Z,31.85
2022-08-16T10:52:20.270Z,31.64
2022-08-16T10:57:24.420Z,31.45
2022-08-16T11:02:58.248Z,31.29
2022-08-16T11:07:53.767Z,31.16
2022-08-16T11:13:20.801Z,30.97
2022-08-16T11:19:04.911Z,30.67
2022-08-16T11:23:57.458Z,30.17
2022-08-16T11:29:17.024Z,29.76
2022-08-16T11:34:21.065Z,29.49
2022-08-16T11:39:24.224Z,29.29
2022-08-16T11:44:52.722Z,29.19
2022-08-16T11:49:49.961Z,29.09
2022-08-16T11:54:53.743Z,28.97
2022-08-16T12:00:00.651Z,28.99
2022-08-16T12:05:09.031Z,29.10
2022-08-16T12:10:19.391Z,29.20
2022-08-16T12:15:22.595Z,29.32
2022-08-16T12:20:33.062Z,29.46
2022-08-16T12:25:38.341Z,29.70
2022-08-16T12:30:46.160Z,30.12
2022-08-16T12:35:49.698Z,31.03
2022-08-16T12:40:55.718Z,31.86
2022-08-16T12:46:02.058Z,32.54
2022-08-16T12:51:13.543Z,32.79
2022-08-16T12:56:32.756Z,33.16
2022-08-16T13:01:38.629Z,33.44
2022-08-16T13:06:44.789Z,33.81
2022-08-16T13:12:25.073Z,34.01
2022-08-16T13:17:29.715Z,34.31
2022-08-16T13:22:33.429Z,34.71
2022-08-16T13:28:03.171Z,35.00
2022-08-16T13:32:59.826Z,34.71
2022-08-16T13:38:03.764Z,34.12
2022-08-16T13:43:11.447Z,33.63
2022-08-16T13:48:24.661Z,33.10
2022-08-16T13:53:28.667Z,32.17
2022-08-16T13:58:36.595Z,31.42
2022-08-16T14:03:41.990Z,30.96
2022-08-16T14:08:59.272Z,30.67
2022-08-16T14:14:11.254Z,30.47
2022-08-16T14:19:18.396Z,30.74
2022-08-16T14:24:30.112Z,30.95
2022-08-16T14:29:35.107Z,31.03
2022-08-16T14:34:41.788Z,31.04
2022-08-16T14:39:45.511Z,31.09
2022-08-16T14:44:50.173Z,31.10
2022-08-16T14:49:52.991Z,31.15
2022-08-16T14:54:55.911Z,31.11
2022-08-16T15:00:05.809Z,30.87
2022-08-16T15:05:11.318Z,30.62
2022-08-16T15:10:24.123Z,30.50
2022-08-16T15:15:29.789Z,30.48
2022-08-16T15:20:35.648Z,30.53
2022-08-16T15:25:47.381Z,30.56
2022-08-16T15:31:10.051Z,30.58
2022-08-16T15:36:20.823Z,30.61
2022-08-16T15:41:42.522Z,30.67
2022-08-16T15:46:56.469Z,30.63
2022-08-16T15:52:01.969Z,30.64
2022-08-16T15:57:11.993Z,30.86
2022-08-16T16:02:19.314Z,31.31
2022-08-16T16:07:32.217Z,31.73
2022-08-16T16:12:50.990Z,31.86
2022-08-16T16:17:58.413Z,31.89
2022-08-16T16:23:10.636Z,31.97
2022-08-16T16:28:51.364Z,32.18
2022-08-16T16:33:43.517Z,32.14
2022-08-16T16:38:48.630Z,31.55
2022-08-16T16:43:54.021Z,31.04
2022-08-16T16:48:57.021Z,30.64
2022-08-16T16:54:02.706Z,30.48
2022-08-16T16:59:10.218Z,30.21
2022-08-16T17:04:19.800Z,30.02
2022-08-16T17:09:24.979Z,29.85
2022-08-16T17:14:33.813Z,29.72
2022-08-16T17:19:41.228Z,29.55
2022-08-16T17:24:52.555Z,29.39
2022-08-16T17:29:55.521Z,29.20
2022-08-16T17:35:03.045Z,29.01
2022-08-16T17:40:40.503Z,28.83
2022-08-16T17:45:40.222Z,28.17
2022-08-16T17:50:43.897Z,26.86
2022-08-16T17:55:50.609Z,25.81
2022-08-16T18:01:00.022Z,24.91
2022-08-16T18:06:05.861Z,24.26
2022-08-16T18:11:08.808Z,23.65
2022-08-16T18:16:16.584Z,23.29
2022-08-16T18:21:38.533Z,23.00
2022-08-16T18:26:41.771Z,22.76
2022-08-16T18:31:44.845Z,22.63
2022-08-16T18:36:48.850Z,22.56
2022-08-16T18:41:52.076Z,22.47
2022-08-16T18:46:55.604Z,22.35
2022-08-16T18:52:01.917Z,22.23
2022-08-16T18:57:08.013Z,22.18
2022-08-16T19:02:56.906Z,22.14
2022-08-16T19:07:34.152Z,22.09
2022-08-16T19:12:42.171Z,22.13
2022-08-16T19:17:46.330Z,22.09
2022-08-16T19:23:06.327Z,22.11
2022-08-16T19:28:21.830Z,22.17
2022-08-16T19:33:37.886Z,22.18
2022-08-16T19:38:40.922Z,22.28
2022-08-16T19:43:44.835Z,22.36
2022-08-16T19:48:47.691Z,22.41
2022-08-16T19:53:50.465Z,22.44
2022-08-16T20:04:16.993Z,22.54
2022-08-16T20:09:21.638Z,22.58
2022-08-16T20:14:26.557Z,22.56
2022-08-16T20:19:40.167Z,22.51
2022-08-16T20:24:43.766Z,22.53
2022-08-16T20:29:48.511Z,22.65
2022-08-16T20:34:54.147Z,22.62
2022-08-16T20:40:27.212Z,22.53
2022-08-16T20:45:21.557Z,22.42
2022-08-16T20:50:26.994Z,22.34
2022-08-16T20:55:30.846Z,22.25
2022-08-16T21:00:33.796Z,22.20
2022-08-16T21:05:37.394Z,22.02
2022-08-16T21:10:40.410Z,21.84
2022-08-16T21:15:43.951Z,21.63
2022-08-16T21:20:47.259Z,21.53
2022-08-16T21:25:57.803Z,21.44
2022-08-16T21:31:02.252Z,21.38
2022-08-16T21:36:05.595Z,21.33
2022-08-16T21:41:10.345Z,21.26
2022-08-16T21:46:13.440Z,21.18
2022-08-16T21:51:16.378Z,21.14
2022-08-16T21:56:19.578Z,21.09
2022-08-16T22:01:23.418Z,21.03
2022-08-16T22:06:26.683Z,20.98
2022-08-16T22:11:29.696Z,20.91
2022-08-16T22:16:38.004Z,20.84
2022-08-16T22:21:41.592Z,20.85
2022-08-16T22:26:44.652Z,20.78
2022-08-16T22:31:48.036Z,20.72
2022-08-16T22:36:51.660Z,20.65
2022-08-16T22:41:54.791Z,20.65
2022-08-16T22:46:57.663Z,20.68
2022-08-16T22:52:07.293Z,20.66
2022-08-16T22:57:10.452Z,20.67
2022-08-16T23:02:13.752Z,20.70
2022-08-16T23:07:16.887Z,20.66
2022-08-16T23:12:20.856Z,20.61
2022-08-16T23:17:32.683Z,20.57
2022-08-16T23:23:21.210Z,20.54
2022-08-16T23:28:14.388Z,20.50
2022-08-16T23:33:19.879Z,20.39
2022-08-16T23:38:38.076Z,20.40
2022-08-16T23:43:43.894Z,20.32
2022-08-16T23:49:56.240Z,20.24
2022-08-16T23:54:11.777Z,20.24
2022-08-16T23:59:14.717Z,20.24
